Norman, Minnesota
Current Conditions -  °F | °C
As of 12:14 AM on Thursday 29 Jan 2015 (Local Time) from KMZH Reporting Station
Haze Haze  
Wind Chill: 25°   Ceiling: 700
Heat Index: 30°   Visibility: 2mi
Dew Point: 28°   Wind: 5mph
Humidity: 93%   Direction: 290°WNW
Pressure: 29.83"   Gusts: NA
Location:  46.2985°N, 92.833°W
Report Text: KMZH 290614Z AUTO 29004KT 2SM BR OVC007 M01/M02 A2983 RMK AO2
Loading
Personal Weather Stations






























Interactive Weather Map New forecast layout! Learn more

10-Day Weather Forecast

Advertisements
Track Severe Weather on mobile